Terminal Aerodrome Forecast
Issued by NWS Charleston, WV

Current Version | Previous Version | Graphics & Text | Print | Product List | Glossary On
Versions: 1 2 3 4 5 6 7 8 9 10 11 12 13 14 15 16 17 18 19 20 21 22
000
FTUS41 KRLX 190800 AAA
TAFPKB
TAF AMD
KPKB 190850Z 1909/2006 08007KT P6SM BKN250
     FM191100 10007KT P6SM BKN090
     FM191400 10010G15KT P6SM BKN070
     FM191600 11011G23KT P6SM -SHRA BKN060
     FM192000 11013G20KT 3SM SHRA BR OVC025
     FM200100 13012G21KT 4SM SHRA BR OVC035
     FM200300 17010G15KT 6SM SHRA BR OVC040
     FM200500 18007KT 6SM BR BKN025=

USA.gov is the U.S. government's official web portal to all federal, state and local government web resources and services.